sensor_id;sensor_type;location;lat;lon;timestamp;pressure;altitude;pressure_sealevel;temperature;humidity
58686;BME280;44465;53.206;-6.106;2024-02-23T00:01:47;97999.34;;;20.88;44.81
58686;BME280;44465;53.206;-6.106;2024-02-23T00:04:13;97993.00;;;20.89;44.78
58686;BME280;44465;53.206;-6.106;2024-02-23T00:06:39;98007.59;;;20.95;44.89
58686;BME280;44465;53.206;-6.106;2024-02-23T00:09:04;97999.03;;;20.91;44.86
58686;BME280;44465;53.206;-6.106;2024-02-23T00:11:30;98004.41;;;20.91;44.78
58686;BME280;44465;53.206;-6.106;2024-02-23T00:13:55;97982.31;;;20.89;45.04
58686;BME280;44465;53.206;-6.106;2024-02-23T00:16:21;97987.81;;;20.88;44.58
58686;BME280;44465;53.206;-6.106;2024-02-23T00:18:46;97981.31;;;20.90;44.60
58686;BME280;44465;53.206;-6.106;2024-02-23T00:21:12;97989.88;;;20.94;44.81
58686;BME280;44465;53.206;-6.106;2024-02-23T00:23:37;97984.97;;;20.89;44.75
58686;BME280;44465;53.206;-6.106;2024-02-23T00:26:03;97982.84;;;20.93;44.76
58686;BME280;44465;53.206;-6.106;2024-02-23T00:28:29;97980.47;;;20.90;44.71
58686;BME280;44465;53.206;-6.106;2024-02-23T00:30:54;97990.03;;;20.92;44.76
58686;BME280;44465;53.206;-6.106;2024-02-23T00:33:20;97991.84;;;20.92;44.63
58686;BME280;44465;53.206;-6.106;2024-02-23T00:35:45;97989.50;;;20.89;44.60
58686;BME280;44465;53.206;-6.106;2024-02-23T00:38:11;98005.91;;;20.94;44.63
58686;BME280;44465;53.206;-6.106;2024-02-23T00:40:36;98002.53;;;20.92;44.81
58686;BME280;44465;53.206;-6.106;2024-02-23T00:43:03;98007.59;;;20.95;44.81
58686;BME280;44465;53.206;-6.106;2024-02-23T00:45:29;98004.94;;;20.95;44.79
58686;BME280;44465;53.206;-6.106;2024-02-23T00:47:55;98012.94;;;20.95;44.83
58686;BME280;44465;53.206;-6.106;2024-02-23T00:50:22;98027.59;;;20.91;44.84
58686;BME280;44465;53.206;-6.106;2024-02-23T00:52:49;98015.91;;;20.92;44.86
58686;BME280;44465;53.206;-6.106;2024-02-23T00:55:14;98020.59;;;20.90;44.82
58686;BME280;44465;53.206;-6.106;2024-02-23T00:57:40;98041.56;;;20.95;44.69
58686;BME280;44465;53.206;-6.106;2024-02-23T01:00:06;98041.69;;;20.93;45.06
58686;BME280;44465;53.206;-6.106;2024-02-23T01:02:31;98035.97;;;20.88;45.01
58686;BME280;44465;53.206;-6.106;2024-02-23T01:04:58;98049.13;;;20.99;44.71
58686;BME280;44465;53.206;-6.106;2024-02-23T01:07:24;98037.72;;;20.97;44.75
58686;BME280;44465;53.206;-6.106;2024-02-23T01:09:50;98041.38;;;20.96;44.76
58686;BME280;44465;53.206;-6.106;2024-02-23T01:12:16;98038.00;;;20.94;44.87
58686;BME280;44465;53.206;-6.106;2024-02-23T01:14:42;98043.38;;;20.94;44.83
58686;BME280;44465;53.206;-6.106;2024-02-23T01:17:07;98038.31;;;20.91;44.90
58686;BME280;44465;53.206;-6.106;2024-02-23T01:19:33;98033.53;;;20.95;44.67
58686;BME280;44465;53.206;-6.106;2024-02-23T01:21:58;98023.13;;;20.91;44.83
58686;BME280;44465;53.206;-6.106;2024-02-23T01:24:27;98024.94;;;20.91;44.88
58686;BME280;44465;53.206;-6.106;2024-02-23T01:26:55;98039.69;;;20.95;45.06
58686;BME280;44465;53.206;-6.106;2024-02-23T01:29:21;98033.97;;;20.90;44.89
58686;BME280;44465;53.206;-6.106;2024-02-23T01:31:48;98022.88;;;20.85;44.89
58686;BME280;44465;53.206;-6.106;2024-02-23T01:34:13;98034.81;;;20.90;44.86
58686;BME280;44465;53.206;-6.106;2024-02-23T01:36:39;98016.25;;;20.89;44.96
58686;BME280;44465;53.206;-6.106;2024-02-23T01:39:04;98020.28;;;20.93;44.81
58686;BME280;44465;53.206;-6.106;2024-02-23T01:41:30;98010.72;;;20.90;44.66
58686;BME280;44465;53.206;-6.106;2024-02-23T01:43:56;98013.41;;;20.90;44.76
58686;BME280;44465;53.206;-6.106;2024-02-23T01:46:21;98025.63;;;20.93;44.70
58686;BME280;44465;53.206;-6.106;2024-02-23T01:48:47;98028.31;;;20.93;44.76
58686;BME280;44465;53.206;-6.106;2024-02-23T01:51:13;98010.19;;;20.87;44.81
58686;BME280;44465;53.206;-6.106;2024-02-23T01:53:38;98004.84;;;20.87;44.82
58686;BME280;44465;53.206;-6.106;2024-02-23T01:56:05;98021.28;;;20.92;44.75
58686;BME280;44465;53.206;-6.106;2024-02-23T01:58:33;98021.72;;;20.87;45.04
58686;BME280;44465;53.206;-6.106;2024-02-23T02:01:00;98017.59;;;20.93;44.87
58686;BME280;44465;53.206;-6.106;2024-02-23T02:03:26;98018.06;;;20.88;44.85
58686;BME280;44465;53.206;-6.106;2024-02-23T02:05:52;98021.28;;;20.92;44.65
58686;BME280;44465;53.206;-6.106;2024-02-23T02:08:19;98019.59;;;20.91;44.75
58686;BME280;44465;53.206;-6.106;2024-02-23T02:10:45;98020.75;;;20.88;44.61
58686;BME280;44465;53.206;-6.106;2024-02-23T02:13:11;98029.91;;;20.86;44.75
58686;BME280;44465;53.206;-6.106;2024-02-23T02:15:37;98029.63;;;20.89;44.81
58686;BME280;44465;53.206;-6.106;2024-02-23T02:18:03;98008.22;;;20.89;44.74
58686;BME280;44465;53.206;-6.106;2024-02-23T02:20:32;97998.34;;;20.89;44.98
58686;BME280;44465;53.206;-6.106;2024-02-23T02:22:58;98003.53;;;20.91;44.90
58686;BME280;44465;53.206;-6.106;2024-02-23T02:25:23;97990.78;;;20.85;44.89
58686;BME280;44465;53.206;-6.106;2024-02-23T02:27:49;97991.84;;;20.92;44.76
58686;BME280;44465;53.206;-6.106;2024-02-23T02:30:14;97990.50;;;20.88;44.81
58686;BME280;44465;53.206;-6.106;2024-02-23T02:32:40;97993.84;;;20.90;44.93
58686;BME280;44465;53.206;-6.106;2024-02-23T02:35:05;97988.28;;;20.83;44.89
58686;BME280;44465;53.206;-6.106;2024-02-23T02:37:31;98006.22;;;20.91;44.96
58686;BME280;44465;53.206;-6.106;2024-02-23T02:39:56;98004.56;;;20.90;45.00
58686;BME280;44465;53.206;-6.106;2024-02-23T02:42:22;97999.78;;;20.84;44.89
58686;BME280;44465;53.206;-6.106;2024-02-23T02:44:47;98014.56;;;20.88;44.71
58686;BME280;44465;53.206;-6.106;2024-02-23T02:47:13;98017.00;;;20.81;44.94
58686;BME280;44465;53.206;-6.106;2024-02-23T02:49:39;98022.50;;;20.80;44.82
58686;BME280;44465;53.206;-6.106;2024-02-23T02:52:05;98017.53;;;20.85;44.93
58686;BME280;44465;53.206;-6.106;2024-02-23T02:54:31;98018.06;;;20.88;44.81
58686;BME280;44465;53.206;-6.106;2024-02-23T02:56:57;98025.97;;;20.90;44.77
58686;BME280;44465;53.206;-6.106;2024-02-23T02:59:23;98033.97;;;20.90;44.89
58686;BME280;44465;53.206;-6.106;2024-02-23T03:01:48;98015.31;;;20.80;44.82
58686;BME280;44465;53.206;-6.106;2024-02-23T03:04:14;98031.31;;;20.90;44.94
58686;BME280;44465;53.206;-6.106;2024-02-23T03:06:39;98038.94;;;20.85;44.89
58686;BME280;44465;53.206;-6.106;2024-02-23T03:09:05;98037.25;;;20.84;44.90
58686;BME280;44465;53.206;-6.106;2024-02-23T03:11:31;98061.03;;;20.87;44.74
58686;BME280;44465;53.206;-6.106;2024-02-23T03:13:56;98037.94;;;20.86;44.66
58686;BME280;44465;53.206;-6.106;2024-02-23T03:16:22;98053.97;;;20.86;45.00
58686;BME280;44465;53.206;-6.106;2024-02-23T03:18:52;98031.53;;;20.79;44.65
58686;BME280;44465;53.206;-6.106;2024-02-23T03:21:19;98058.34;;;20.87;44.84
58686;BME280;44465;53.206;-6.106;2024-02-23T03:23:45;98040.06;;;20.82;44.64
58686;BME280;44465;53.206;-6.106;2024-02-23T03:26:10;98052.13;;;20.86;44.82
58686;BME280;44465;53.206;-6.106;2024-02-23T03:28:36;98043.44;;;20.84;44.82
58686;BME280;44465;53.206;-6.106;2024-02-23T03:31:01;98044.44;;;20.83;44.86
58686;BME280;44465;53.206;-6.106;2024-02-23T03:33:27;98042.28;;;20.87;44.66
58686;BME280;44465;53.206;-6.106;2024-02-23T03:35:53;98036.09;;;20.86;44.75
58686;BME280;44465;53.206;-6.106;2024-02-23T03:38:18;98040.31;;;20.89;44.76
58686;BME280;44465;53.206;-6.106;2024-02-23T03:40:44;98023.78;;;20.75;44.77
58686;BME280;44465;53.206;-6.106;2024-02-23T03:43:09;98032.75;;;20.84;45.03
58686;BME280;44465;53.206;-6.106;2024-02-23T03:45:34;98031.59;;;20.87;44.92
58686;BME280;44465;53.206;-6.106;2024-02-23T03:48:02;98030.59;;;20.88;44.79
58686;BME280;44465;53.206;-6.106;2024-02-23T03:50:29;98022.06;;;20.84;45.02
58686;BME280;44465;53.206;-6.106;2024-02-23T03:52:54;98022.06;;;20.84;44.88
58686;BME280;44465;53.206;-6.106;2024-02-23T03:55:19;98025.84;;;20.82;44.69
58686;BME280;44465;53.206;-6.106;2024-02-23T03:57:45;98024.72;;;20.84;44.74
58686;BME280;44465;53.206;-6.106;2024-02-23T04:00:11;98021.19;;;20.84;45.34
58686;BME280;44465;53.206;-6.106;2024-02-23T04:02:40;98026.53;;;20.84;45.01
58686;BME280;44465;53.206;-6.106;2024-02-23T04:05:06;98012.88;;;20.87;44.84
58686;BME280;44465;53.206;-6.106;2024-02-23T04:07:32;98005.44;;;20.81;44.78
58686;BME280;44465;53.206;-6.106;2024-02-23T04:09:58;98013.88;;;20.86;44.87
58686;BME280;44465;53.206;-6.106;2024-02-23T04:12:24;98023.69;;;20.85;44.74
58686;BME280;44465;53.206;-6.106;2024-02-23T04:14:50;98014.03;;;20.84;44.85
58686;BME280;44465;53.206;-6.106;2024-02-23T04:17:15;98017.53;;;20.85;44.88
58686;BME280;44465;53.206;-6.106;2024-02-23T04:19:41;98026.69;;;20.82;44.84
58686;BME280;44465;53.206;-6.106;2024-02-23T04:22:08;98018.22;;;20.87;44.98
58686;BME280;44465;53.206;-6.106;2024-02-23T04:24:36;98020.03;;;20.86;44.91
58686;BME280;44465;53.206;-6.106;2024-02-23T04:27:04;98018.69;;;20.82;44.75
58686;BME280;44465;53.206;-6.106;2024-02-23T04:29:30;98014.78;;;20.76;44.85
58686;BME280;44465;53.206;-6.106;2024-02-23T04:31:57;98028.84;;;20.79;44.82
58686;BME280;44465;53.206;-6.106;2024-02-23T04:34:23;98029.38;;;20.82;44.72
58686;BME280;44465;53.206;-6.106;2024-02-23T04:36:49;98038.94;;;20.85;44.89
58686;BME280;44465;53.206;-6.106;2024-02-23T04:39:14;98039.75;;;20.85;44.88
58686;BME280;44465;53.206;-6.106;2024-02-23T04:41:40;98037.41;;;20.82;44.82
58686;BME280;44465;53.206;-6.106;2024-02-23T04:44:05;98031.88;;;20.84;44.88
58686;BME280;44465;53.206;-6.106;2024-02-23T04:46:31;98028.22;;;20.85;44.85
58686;BME280;44465;53.206;-6.106;2024-02-23T04:48:57;98030.91;;;20.85;45.12
58686;BME280;44465;53.206;-6.106;2024-02-23T04:51:22;98030.19;;;20.83;44.84
58686;BME280;44465;53.206;-6.106;2024-02-23T04:53:49;98024.84;;;20.83;44.83
58686;BME280;44465;53.206;-6.106;2024-02-23T04:56:14;98026.53;;;20.84;44.92
58686;BME280;44465;53.206;-6.106;2024-02-23T04:58:40;98026.84;;;20.81;44.71
58686;BME280;44465;53.206;-6.106;2024-02-23T05:01:07;98038.94;;;20.85;45.01
58686;BME280;44465;53.206;-6.106;2024-02-23T05:03:32;98038.38;;;20.81;44.97
58686;BME280;44465;53.206;-6.106;2024-02-23T05:05:58;98033.88;;;20.82;45.00
58686;BME280;44465;53.206;-6.106;2024-02-23T05:08:23;98032.50;;;20.77;44.90
58686;BME280;44465;53.206;-6.106;2024-02-23T05:10:50;98038.94;;;20.85;44.90
58686;BME280;44465;53.206;-6.106;2024-02-23T05:13:16;98039.22;;;20.82;44.72
58686;BME280;44465;53.206;-6.106;2024-02-23T05:15:41;98046.94;;;20.85;44.72
58686;BME280;44465;53.206;-6.106;2024-02-23T05:18:07;98049.09;;;20.81;44.90
58686;BME280;44465;53.206;-6.106;2024-02-23T05:20:33;98064.00;;;20.84;45.00
58686;BME280;44465;53.206;-6.106;2024-02-23T05:22:58;98047.69;;;20.77;44.98
58686;BME280;44465;53.206;-6.106;2024-02-23T05:25:24;98063.28;;;20.82;44.75
58686;BME280;44465;53.206;-6.106;2024-02-23T05:27:51;98064.84;;;20.84;44.87
58686;BME280;44465;53.206;-6.106;2024-02-23T05:30:16;98057.81;;;20.73;44.88
58686;BME280;44465;53.206;-6.106;2024-02-23T05:32:42;98062.63;;;20.80;45.00
58686;BME280;44465;53.206;-6.106;2024-02-23T05:35:07;98073.69;;;20.85;45.00
58686;BME280;44465;53.206;-6.106;2024-02-23T05:37:37;98068.34;;;20.85;44.99
58686;BME280;44465;53.206;-6.106;2024-02-23T05:40:03;98062.63;;;20.80;45.03
58686;BME280;44465;53.206;-6.106;2024-02-23T05:42:38;98062.31;;;20.83;45.08
58686;BME280;44465;53.206;-6.106;2024-02-23T05:45:04;98059.63;;;20.83;44.68
58686;BME280;44465;53.206;-6.106;2024-02-23T05:47:31;98042.50;;;20.75;44.86
58686;BME280;44465;53.206;-6.106;2024-02-23T05:49:56;98040.38;;;20.79;44.90
58686;BME280;44465;53.206;-6.106;2024-02-23T05:52:22;98057.28;;;20.80;44.97
58686;BME280;44465;53.206;-6.106;2024-02-23T05:54:47;98057.81;;;20.83;44.77
58686;BME280;44465;53.206;-6.106;2024-02-23T05:57:13;98051.59;;;20.83;45.00
58686;BME280;44465;53.206;-6.106;2024-02-23T05:59:38;98034.63;;;20.74;44.89
58686;BME280;44465;53.206;-6.106;2024-02-23T06:02:04;98053.03;;;20.77;44.88
58686;BME280;44465;53.206;-6.106;2024-02-23T06:04:29;98042.34;;;20.77;44.84
58686;BME280;44465;53.206;-6.106;2024-02-23T06:06:55;98051.06;;;20.79;44.83
58686;BME280;44465;53.206;-6.106;2024-02-23T06:09:21;98057.94;;;20.82;45.03
58686;BME280;44465;53.206;-6.106;2024-02-23T06:11:46;98052.22;;;20.76;44.92
58686;BME280;44465;53.206;-6.106;2024-02-23T06:14:12;98049.38;;;20.78;45.03
58686;BME280;44465;53.206;-6.106;2024-02-23T06:16:38;98064.16;;;20.82;44.97
58686;BME280;44465;53.206;-6.106;2024-02-23T06:19:03;98065.13;;;20.81;44.74
58686;BME280;44465;53.206;-6.106;2024-02-23T06:21:29;98065.13;;;20.81;44.90
58686;BME280;44465;53.206;-6.106;2024-02-23T06:23:55;98076.00;;;20.80;45.06
58686;BME280;44465;53.206;-6.106;2024-02-23T06:26:21;98071.63;;;20.79;44.97
58686;BME280;44465;53.206;-6.106;2024-02-23T06:28:46;98077.28;;;20.75;44.78
58686;BME280;44465;53.206;-6.106;2024-02-23T06:31:12;98082.00;;;20.82;44.74
58686;BME280;44465;53.206;-6.106;2024-02-23T06:33:38;98078.97;;;20.76;44.68
58686;BME280;44465;53.206;-6.106;2024-02-23T06:36:03;98073.75;;;20.75;44.67
58686;BME280;44465;53.206;-6.106;2024-02-23T06:38:29;98093.56;;;20.82;44.82
58686;BME280;44465;53.206;-6.106;2024-02-23T06:40:55;98087.34;;;20.82;44.87
58686;BME280;44465;53.206;-6.106;2024-02-23T06:43:21;98088.34;;;20.81;44.77
58686;BME280;44465;53.206;-6.106;2024-02-23T06:45:47;98085.00;;;20.79;44.90
58686;BME280;44465;53.206;-6.106;2024-02-23T06:48:12;98087.69;;;20.79;44.82
58686;BME280;44465;53.206;-6.106;2024-02-23T06:50:38;98070.50;;;20.71;44.97
58686;BME280;44465;53.206;-6.106;2024-02-23T06:53:03;98082.63;;;20.75;44.82
58686;BME280;44465;53.206;-6.106;2024-02-23T06:55:30;98092.03;;;20.80;44.79
58686;BME280;44465;53.206;-6.106;2024-02-23T06:57:56;98087.81;;;20.77;44.73
58686;BME280;44465;53.206;-6.106;2024-02-23T07:00:22;98094.16;;;20.76;44.95
58686;BME280;44465;53.206;-6.106;2024-02-23T07:02:49;98099.03;;;20.81;44.58
58686;BME280;44465;53.206;-6.106;2024-02-23T07:05:14;98100.06;;;20.80;44.98
58686;BME280;44465;53.206;-6.106;2024-02-23T07:07:40;98096.97;;;20.74;44.75
58686;BME280;44465;53.206;-6.106;2024-02-23T07:10:07;98099.38;;;20.77;44.96
58686;BME280;44465;53.206;-6.106;2024-02-23T07:12:34;98099.38;;;20.77;44.83
58686;BME280;44465;53.206;-6.106;2024-02-23T07:14:59;98094.72;;;20.80;44.83
58686;BME280;44465;53.206;-6.106;2024-02-23T07:17:25;98101.06;;;20.79;44.73
58686;BME280;44465;53.206;-6.106;2024-02-23T07:19:50;98092.59;;;20.73;44.80
58686;BME280;44465;53.206;-6.106;2024-02-23T07:22:16;98104.41;;;20.81;44.70
58686;BME280;44465;53.206;-6.106;2024-02-23T07:24:43;98109.19;;;20.77;44.65
58686;BME280;44465;53.206;-6.106;2024-02-23T07:27:09;98113.13;;;20.83;44.90
58686;BME280;44465;53.206;-6.106;2024-02-23T07:29:35;98115.94;;;20.81;45.03
58686;BME280;44465;53.206;-6.106;2024-02-23T07:32:01;98111.59;;;20.80;44.84
58686;BME280;44465;53.206;-6.106;2024-02-23T07:34:26;98109.38;;;20.75;44.81
58686;BME280;44465;53.206;-6.106;2024-02-23T07:36:52;98109.06;;;20.79;44.73
58686;BME280;44465;53.206;-6.106;2024-02-23T07:39:18;98104.00;;;20.75;45.11
58686;BME280;44465;53.206;-6.106;2024-02-23T07:41:44;98078.13;;;20.66;45.19
58686;BME280;44465;53.206;-6.106;2024-02-23T07:44:09;98105.41;;;20.80;45.11
58686;BME280;44465;53.206;-6.106;2024-02-23T07:46:35;98087.69;;;20.69;45.09
58686;BME280;44465;53.206;-6.106;2024-02-23T07:49:00;98090.34;;;20.79;45.17
58686;BME280;44465;53.206;-6.106;2024-02-23T07:51:26;98087.69;;;20.79;45.09
58686;BME280;44465;53.206;-6.106;2024-02-23T07:53:51;98093.56;;;20.82;45.22
58686;BME280;44465;53.206;-6.106;2024-02-23T07:56:16;98093.69;;;20.81;45.09
58686;BME280;44465;53.206;-6.106;2024-02-23T07:58:42;98092.16;;;20.78;45.06
58686;BME280;44465;53.206;-6.106;2024-02-23T08:01:08;98075.84;;;20.71;45.16
58686;BME280;44465;53.206;-6.106;2024-02-23T08:03:33;98085.69;;;20.81;45.31
58686;BME280;44465;53.206;-6.106;2024-02-23T08:05:59;98084.69;;;20.82;44.91
58686;BME280;44465;53.206;-6.106;2024-02-23T08:08:26;98086.53;;;20.81;45.32
58686;BME280;44465;53.206;-6.106;2024-02-23T08:10:53;98082.16;;;20.80;45.19
58686;BME280;44465;53.206;-6.106;2024-02-23T08:13:19;98079.78;;;20.77;45.25
58686;BME280;44465;53.206;-6.106;2024-02-23T08:15:44;98066.84;;;20.72;45.11
58686;BME280;44465;53.206;-6.106;2024-02-23T08:18:10;98091.72;;;20.83;45.17
58686;BME280;44465;53.206;-6.106;2024-02-23T08:20:36;98087.34;;;20.82;45.32
58686;BME280;44465;53.206;-6.106;2024-02-23T08:23:02;98091.34;;;20.77;45.17
58686;BME280;44465;53.206;-6.106;2024-02-23T08:25:27;98099.19;;;20.79;45.20
58686;BME280;44465;53.206;-6.106;2024-02-23T08:27:55;98102.56;;;20.81;45.10
58686;BME280;44465;53.206;-6.106;2024-02-23T08:30:22;98096.38;;;20.81;45.26
58686;BME280;44465;53.206;-6.106;2024-02-23T08:32:47;98100.72;;;20.82;45.35
58686;BME280;44465;53.206;-6.106;2024-02-23T08:35:13;98086.81;;;20.78;45.12
58686;BME280;44465;53.206;-6.106;2024-02-23T08:37:39;98091.34;;;20.77;45.19
58686;BME280;44465;53.206;-6.106;2024-02-23T08:40:05;98090.91;;;20.82;45.17
58686;BME280;44465;53.206;-6.106;2024-02-23T08:42:31;98080.66;;;20.77;45.05
58686;BME280;44465;53.206;-6.106;2024-02-23T08:44:57;98097.38;;;20.80;45.05
58686;BME280;44465;53.206;-6.106;2024-02-23T08:47:22;98094.41;;;20.83;44.95
58686;BME280;44465;53.206;-6.106;2024-02-23T08:49:48;98106.78;;;20.84;44.96
58686;BME280;44465;53.206;-6.106;2024-02-23T08:52:13;98103.03;;;20.76;45.10
58686;BME280;44465;53.206;-6.106;2024-02-23T08:54:39;98110.75;;;20.80;44.99
58686;BME280;44465;53.206;-6.106;2024-02-23T08:57:05;98122.00;;;20.83;45.18
58686;BME280;44465;53.206;-6.106;2024-02-23T08:59:30;98114.44;;;20.79;45.16
58686;BME280;44465;53.206;-6.106;2024-02-23T09:01:56;98119.31;;;20.83;44.97
58686;BME280;44465;53.206;-6.106;2024-02-23T09:04:22;98112.41;;;20.81;45.05
58686;BME280;44465;53.206;-6.106;2024-02-23T09:06:47;98118.91;;;20.78;45.20
58686;BME280;44465;53.206;-6.106;2024-02-23T09:09:15;98119.78;;;20.79;45.23
58686;BME280;44465;53.206;-6.106;2024-02-23T09:11:40;98116.25;;;20.78;45.11
58686;BME280;44465;53.206;-6.106;2024-02-23T09:14:06;98118.47;;;20.83;45.05
58686;BME280;44465;53.206;-6.106;2024-02-23T09:16:31;98078.50;;;20.71;45.04
58686;BME280;44465;53.206;-6.106;2024-02-23T09:18:57;98107.69;;;20.74;44.83
58686;BME280;44465;53.206;-6.106;2024-02-23T09:21:22;98113.44;;;20.80;44.97
58686;BME280;44465;53.206;-6.106;2024-02-23T09:23:48;98104.84;;;20.76;44.91
58686;BME280;44465;53.206;-6.106;2024-02-23T09:26:13;98110.75;;;20.80;45.06
58686;BME280;44465;53.206;-6.106;2024-02-23T09:28:39;98119.47;;;20.82;44.90
58686;BME280;44465;53.206;-6.106;2024-02-23T09:31:07;98129.31;;;20.81;44.83
58686;BME280;44465;53.206;-6.106;2024-02-23T09:33:33;98106.13;;;20.72;44.89
58686;BME280;44465;53.206;-6.106;2024-02-23T09:35:58;98105.41;;;20.80;45.00
58686;BME280;44465;53.206;-6.106;2024-02-23T09:38:25;98117.47;;;20.84;44.96
58686;BME280;44465;53.206;-6.106;2024-02-23T09:40:51;98115.94;;;20.81;44.81
58686;BME280;44465;53.206;-6.106;2024-02-23T09:43:17;98114.97;;;20.82;44.95
58686;BME280;44465;53.206;-6.106;2024-02-23T09:45:44;98114.66;;;20.85;45.02
58686;BME280;44465;53.206;-6.106;2024-02-23T09:48:10;98113.00;;;20.84;44.89
58686;BME280;44465;53.206;-6.106;2024-02-23T09:50:37;98110.16;;;20.86;44.94
58686;BME280;44465;53.206;-6.106;2024-02-23T09:53:04;98115.78;;;20.83;44.96
58686;BME280;44465;53.206;-6.106;2024-02-23T09:55:34;98113.56;;;20.78;44.89
58686;BME280;44465;53.206;-6.106;2024-02-23T09:58:00;98128.88;;;20.86;44.95
58686;BME280;44465;53.206;-6.106;2024-02-23T10:00:26;98122.44;;;20.79;44.93
58686;BME280;44465;53.206;-6.106;2024-02-23T10:02:53;98126.50;;;20.83;44.91
58686;BME280;44465;53.206;-6.106;2024-02-23T10:05:23;98119.78;;;20.79;44.67
58686;BME280;44465;53.206;-6.106;2024-02-23T10:07:52;98124.13;;;20.80;44.97
58686;BME280;44465;53.206;-6.106;2024-02-23T10:10:25;98130.84;;;20.84;44.93
58686;BME280;44465;53.206;-6.106;2024-02-23T10:12:54;98133.81;;;20.81;44.91
58686;BME280;44465;53.206;-6.106;2024-02-23T10:15:20;98139.88;;;20.83;44.74
58686;BME280;44465;53.206;-6.106;2024-02-23T10:17:45;98146.75;;;20.85;44.67
58686;BME280;44465;53.206;-6.106;2024-02-23T10:20:11;98146.19;;;20.82;44.76
58686;BME280;44465;53.206;-6.106;2024-02-23T10:22:36;98159.00;;;20.88;44.72
58686;BME280;44465;53.206;-6.106;2024-02-23T10:25:02;98156.47;;;20.86;44.67
58686;BME280;44465;53.206;-6.106;2024-02-23T10:27:27;98170.53;;;20.88;44.90
58686;BME280;44465;53.206;-6.106;2024-02-23T10:29:53;98159.13;;;20.86;44.75
58686;BME280;44465;53.206;-6.106;2024-02-23T10:32:19;98162.56;;;20.79;44.94
58686;BME280;44465;53.206;-6.106;2024-02-23T10:34:48;98173.22;;;20.88;44.83
58686;BME280;44465;53.206;-6.106;2024-02-23T10:37:16;98170.16;;;20.83;44.81
58686;BME280;44465;53.206;-6.106;2024-02-23T10:39:42;98179.53;;;20.87;44.75
58686;BME280;44465;53.206;-6.106;2024-02-23T10:42:09;98164.25;;;20.80;44.79
58686;BME280;44465;53.206;-6.106;2024-02-23T10:44:35;98184.06;;;20.87;44.74
58686;BME280;44465;53.206;-6.106;2024-02-23T10:47:02;98161.28;;;20.73;44.88
58686;BME280;44465;53.206;-6.106;2024-02-23T10:49:29;98188.44;;;20.88;44.88
58686;BME280;44465;53.206;-6.106;2024-02-23T10:51:56;98181.38;;;20.87;44.98
58686;BME280;44465;53.206;-6.106;2024-02-23T10:54:22;98190.78;;;20.91;44.73
58686;BME280;44465;53.206;-6.106;2024-02-23T10:56:50;98192.09;;;20.87;44.89
58686;BME280;44465;53.206;-6.106;2024-02-23T10:59:19;98204.16;;;20.91;44.96
58686;BME280;44465;53.206;-6.106;2024-02-23T11:01:49;98204.03;;;20.92;44.77
58686;BME280;44465;53.206;-6.106;2024-02-23T11:04:19;98203.50;;;20.89;44.83
58686;BME280;44465;53.206;-6.106;2024-02-23T11:06:52;98213.75;;;20.94;44.82
58686;BME280;44465;53.206;-6.106;2024-02-23T11:09:20;98203.34;;;20.90;44.82
58686;BME280;44465;53.206;-6.106;2024-02-23T11:11:56;98198.44;;;20.86;44.91
58686;BME280;44465;53.206;-6.106;2024-02-23T11:14:32;98206.44;;;20.86;44.80
58686;BME280;44465;53.206;-6.106;2024-02-23T11:17:00;98212.19;;;20.91;44.64
58686;BME280;44465;53.206;-6.106;2024-02-23T11:19:36;98214.56;;;20.94;44.58
58686;BME280;44465;53.206;-6.106;2024-02-23T11:22:03;98218.25;;;20.93;44.59
58686;BME280;44465;53.206;-6.106;2024-02-23T11:24:30;98227.94;;;20.94;44.88
58686;BME280;44465;53.206;-6.106;2024-02-23T11:27:01;98222.31;;;20.97;44.63
58686;BME280;44465;53.206;-6.106;2024-02-23T11:29:33;98218.78;;;20.97;44.69
58686;BME280;44465;53.206;-6.106;2024-02-23T11:32:00;98223.75;;;20.91;44.85
58686;BME280;44465;53.206;-6.106;2024-02-23T11:34:30;98229.94;;;20.92;44.85
58686;BME280;44465;53.206;-6.106;2024-02-23T11:36:56;98236.53;;;20.98;44.80
58686;BME280;44465;53.206;-6.106;2024-02-23T11:39:23;98212.94;;;20.83;44.63
58686;BME280;44465;53.206;-6.106;2024-02-23T11:41:49;98238.09;;;21.00;44.71
58686;BME280;44465;53.206;-6.106;2024-02-23T11:44:15;98243.56;;;20.99;44.70
58686;BME280;44465;53.206;-6.106;2024-02-23T11:46:46;98235.00;;;20.95;44.83
58686;BME280;44465;53.206;-6.106;2024-02-23T11:49:12;98234.84;;;20.97;44.72
58686;BME280;44465;53.206;-6.106;2024-02-23T11:51:38;98248.09;;;20.98;44.82
58686;BME280;44465;53.206;-6.106;2024-02-23T11:54:03;98256.81;;;21.00;44.70
58686;BME280;44465;53.206;-6.106;2024-02-23T11:56:29;98263.81;;;21.01;44.73
58686;BME280;44465;53.206;-6.106;2024-02-23T11:58:55;98255.25;;;20.98;44.94
58686;BME280;44465;53.206;-6.106;2024-02-23T12:01:21;98257.22;;;20.96;44.75
58686;BME280;44465;53.206;-6.106;2024-02-23T12:03:47;98250.88;;;20.97;44.65
58686;BME280;44465;53.206;-6.106;2024-02-23T12:06:14;98262.28;;;20.99;44.86
58686;BME280;44465;53.206;-6.106;2024-02-23T12:08:41;98258.63;;;21.00;44.77
58686;BME280;44465;53.206;-6.106;2024-02-23T12:11:08;98264.53;;;21.03;44.68
58686;BME280;44465;53.206;-6.106;2024-02-23T12:13:35;98260.16;;;21.02;44.84
58686;BME280;44465;53.206;-6.106;2024-02-23T12:16:01;98256.94;;;20.99;44.67
58686;BME280;44465;53.206;-6.106;2024-02-23T12:18:26;98256.13;;;20.98;44.72
58686;BME280;44465;53.206;-6.106;2024-02-23T12:20:52;98263.81;;;21.01;44.42
58686;BME280;44465;53.206;-6.106;2024-02-23T12:23:18;98254.81;;;21.02;44.79
58686;BME280;44465;53.206;-6.106;2024-02-23T12:25:54;98258.63;;;21.00;44.72
58686;BME280;44465;53.206;-6.106;2024-02-23T12:28:20;98269.88;;;21.03;44.69
58686;BME280;44465;53.206;-6.106;2024-02-23T12:30:45;98260.75;;;20.96;44.32
58686;BME280;44465;53.206;-6.106;2024-02-23T12:33:15;98250.88;;;20.97;44.80
58686;BME280;44465;53.206;-6.106;2024-02-23T12:35:41;98256.13;;;20.98;44.74
58686;BME280;44465;53.206;-6.106;2024-02-23T12:38:06;98248.91;;;20.99;44.74
58686;BME280;44465;53.206;-6.106;2024-02-23T12:40:32;98245.09;;;21.01;44.69
58686;BME280;44465;53.206;-6.106;2024-02-23T12:42:57;98265.22;;;21.05;44.67
58686;BME280;44465;53.206;-6.106;2024-02-23T12:45:23;98247.78;;;21.01;44.70